Island Lookout — WDF6311 — position and weather

sailwx.info

Track history (hours):
 
Tides and Currents Weather Stations Pressure Air Temp Water Temp Dewpoint Dewpoint Depression Visibility Wind Speed Wind Dir Waves Ship Positions

Island Lookout

Owner: Stevens Towing Company Inc., Yonges Island, SC. More information available from US FCC via Universal Licensing System and Coast Guard Vessel Documentation Center.

Last reported at 2016-May-28 11:08 UTC. Time now 2016-Jun-01 07:27 UTC.
Position N 36°43' W 076°14'.

Length 22 m; draft 2.9 m.

Type: Towing. MMSI: 367472930.

Date/timePositionNaut miles runAvg speedWind from/ knotsBaromVisibWave heightAir tempDewpointWater temp
2016-May-28 11:08N 36°43' W 076°14'0 0.0
2016-May-27 19:31N 36°43' W 076°15'2 2.6
2016-May-27 18:33N 36°44' W 076°18'3 3.5
2016-May-27 17:33N 36°48' W 076°18'6 5.8
2016-May-27 16:32N 36°53' W 076°20'74 6.1
2016-May-27 04:26N 38°07' W 076°16'5 6.2
2016-May-27 03:33N 38°12' W 076°17'13 6.1
2016-May-27 01:28N 38°24' W 076°23'30 5.8
2016-May-26 20:13N 38°55' W 076°25'5 6.8
2016-May-26 19:33N 38°59' W 076°23'7 7.1
2016-May-26 18:33N 39°06' W 076°24'6 6.1
2016-May-26 17:33N 39°11' W 076°28'3 2.6
2016-May-26 16:33N 39°13' W 076°30'0 0.0
2016-May-26 15:32N 39°13' W 076°30'0 0.0
2016-May-26 14:33N 39°13' W 076°30'0 0.0
2016-May-26 13:33N 39°13' W 076°30'0 0.0
2016-May-26 12:33N 39°13' W 076°30'0 0.0
2016-May-26 11:33N 39°13' W 076°30'0 0.0
2016-May-26 10:33N 39°13' W 076°30'0 0.0
2016-May-26 09:33N 39°13' W 076°30'0 0.0
2016-May-26 08:33N 39°13' W 076°30'0 0.0
2016-May-26 07:33N 39°13' W 076°30'0 0.0
2016-May-26 06:33N 39°13' W 076°30'0 0.0
2016-May-26 05:33N 39°13' W 076°30'0 0.0
2016-May-26 04:33N 39°13' W 076°30'0 0.0
2016-May-26 03:33N 39°13' W 076°30'0 0.0
2016-May-26 02:33N 39°13' W 076°30'0 0.0
2016-May-26 01:32N 39°13' W 076°30'0 0.0
2016-May-26 00:32N 39°13' W 076°30'0 0.0
2016-May-25 23:33N 39°13' W 076°30'0 0.0
2016-May-25 22:33N 39°13' W 076°30'0 0.0
2016-May-25 21:33N 39°13' W 076°30'0 0.0
2016-May-25 20:32N 39°13' W 076°30'3 3.3
2016-May-25 19:31N 39°14' W 076°34'0 0.0
2016-May-25 18:28N 39°14' W 076°34'3 3.0
2016-May-25 17:20N 39°13' W 076°30'0 0.0
2016-May-25 16:33N 39°13' W 076°30'4 4.3
2016-May-25 15:33N 39°10' W 076°26'7 7.2
2016-May-25 14:33N 39°03' W 076°23'7 7.5
2016-May-25 13:33N 38°56' W 076°24'7 7.5
2016-May-25 12:33N 38°49' W 076°26'7 7.2
2016-May-25 11:33N 38°41' W 076°27'32 7.3
2016-May-25 07:09N 38°10' W 076°16'6 7.4
2016-May-25 06:23N 38°05' W 076°15'6 7.6
2016-May-25 05:32N 37°58' W 076°13'63 6.2
2016-May-24 19:20N 36°55' W 076°20'5 6.7
2016-May-24 18:33N 36°51' W 076°18'4 4.2
2016-May-24 17:33N 36°47' W 076°18'4 3.9
2016-May-24 16:33N 36°43' W 076°15'0 0.2
2016-May-24 15:33N 36°43' W 076°15'24 3.5
2016-May-24 08:33N 36°23' W 075°57'  
2016-May-20 09:32N 36°43' W 076°15'0 0.0
2016-May-20 04:26N 36°43' W 076°15'0 0.0
2016-May-20 01:30N 36°43' W 076°15'0 0.0
2016-May-20 00:32N 36°43' W 076°15'0 0.0
2016-May-19 21:03N 36°43' W 076°15'0 0.5
2016-May-19 20:23N 36°43' W 076°15'3 3.8
2016-May-19 19:33N 36°46' W 076°18'4 3.8
2016-May-19 18:33N 36°49' W 076°17'121 5.9
2016-May-18 22:08N 38°50' W 076°27'10 6.1
2016-May-18 20:33N 38°59' W 076°23'12 5.7
2016-May-18 18:30N 39°11' W 076°26'4 4.1
2016-May-18 17:33N 39°13' W 076°30'3 3.3
2016-May-18 16:33N 39°15' W 076°34'2 2.5
2016-May-18 15:33N 39°17' W 076°36'0 0.0
2016-May-18 14:33N 39°17' W 076°36'3 3.3
2016-May-18 13:33N 39°14' W 076°33'1 0.9
2016-May-18 12:33N 39°14' W 076°34'0 0.0
2016-May-18 11:33N 39°14' W 076°34'  
Track history (hours):
 
Tides and Currents Weather Stations Pressure Air Temp Water Temp Dewpoint Dewpoint Depression Visibility Wind Speed Wind Dir Waves Ship Positions

Island Lookout

Owner: Stevens Towing Company Inc., Yonges Island, SC. More information available from US FCC via Universal Licensing System and Coast Guard Vessel Documentation Center.

Last reported at 2016-May-28 11:08 UTC. Time now 2016-Jun-01 07:27 UTC.
Position N 36°43' W 076°14'.

Length 22 m; draft 2.9 m.

Type: Towing. MMSI: 367472930.

Date/timePositionNaut miles runAvg speedWind from/ knotsBaromVisibWave heightAir tempDewpointWater temp
2016-May-28 11:08N 36°43' W 076°14'0 0.0
2016-May-27 19:31N 36°43' W 076°15'2 2.6
2016-May-27 18:33N 36°44' W 076°18'3 3.5
2016-May-27 17:33N 36°48' W 076°18'6 5.8
2016-May-27 16:32N 36°53' W 076°20'74 6.1
2016-May-27 04:26N 38°07' W 076°16'5 6.2
2016-May-27 03:33N 38°12' W 076°17'13 6.1
2016-May-27 01:28N 38°24' W 076°23'30 5.8
2016-May-26 20:13N 38°55' W 076°25'5 6.8
2016-May-26 19:33N 38°59' W 076°23'7 7.1
2016-May-26 18:33N 39°06' W 076°24'6 6.1
2016-May-26 17:33N 39°11' W 076°28'3 2.6
2016-May-26 16:33N 39°13' W 076°30'0 0.0
2016-May-26 15:32N 39°13' W 076°30'0 0.0
2016-May-26 14:33N 39°13' W 076°30'0 0.0
2016-May-26 13:33N 39°13' W 076°30'0 0.0
2016-May-26 12:33N 39°13' W 076°30'0 0.0
2016-May-26 11:33N 39°13' W 076°30'0 0.0
2016-May-26 10:33N 39°13' W 076°30'0 0.0
2016-May-26 09:33N 39°13' W 076°30'0 0.0
2016-May-26 08:33N 39°13' W 076°30'0 0.0
2016-May-26 07:33N 39°13' W 076°30'0 0.0
2016-May-26 06:33N 39°13' W 076°30'0 0.0
2016-May-26 05:33N 39°13' W 076°30'0 0.0
2016-May-26 04:33N 39°13' W 076°30'0 0.0
2016-May-26 03:33N 39°13' W 076°30'0 0.0
2016-May-26 02:33N 39°13' W 076°30'0 0.0
2016-May-26 01:32N 39°13' W 076°30'0 0.0
2016-May-26 00:32N 39°13' W 076°30'0 0.0
2016-May-25 23:33N 39°13' W 076°30'0 0.0
2016-May-25 22:33N 39°13' W 076°30'0 0.0
2016-May-25 21:33N 39°13' W 076°30'0 0.0
2016-May-25 20:32N 39°13' W 076°30'3 3.3
2016-May-25 19:31N 39°14' W 076°34'0 0.0
2016-May-25 18:28N 39°14' W 076°34'3 3.0
2016-May-25 17:20N 39°13' W 076°30'0 0.0
2016-May-25 16:33N 39°13' W 076°30'4 4.3
2016-May-25 15:33N 39°10' W 076°26'7 7.2
2016-May-25 14:33N 39°03' W 076°23'7 7.5
2016-May-25 13:33N 38°56' W 076°24'7 7.5
2016-May-25 12:33N 38°49' W 076°26'7 7.2
2016-May-25 11:33N 38°41' W 076°27'32 7.3
2016-May-25 07:09N 38°10' W 076°16'6 7.4
2016-May-25 06:23N 38°05' W 076°15'6 7.6
2016-May-25 05:32N 37°58' W 076°13'63 6.2
2016-May-24 19:20N 36°55' W 076°20'5 6.7
2016-May-24 18:33N 36°51' W 076°18'4 4.2
2016-May-24 17:33N 36°47' W 076°18'4 3.9
2016-May-24 16:33N 36°43' W 076°15'0 0.2
2016-May-24 15:33N 36°43' W 076°15'24 3.5
2016-May-24 08:33N 36°23' W 075°57'  
2016-May-20 09:32N 36°43' W 076°15'0 0.0
2016-May-20 04:26N 36°43' W 076°15'0 0.0
2016-May-20 01:30N 36°43' W 076°15'0 0.0
2016-May-20 00:32N 36°43' W 076°15'0 0.0
2016-May-19 21:03N 36°43' W 076°15'0 0.5
2016-May-19 20:23N 36°43' W 076°15'3 3.8
2016-May-19 19:33N 36°46' W 076°18'4 3.8
2016-May-19 18:33N 36°49' W 076°17'121 5.9
2016-May-18 22:08N 38°50' W 076°27'10 6.1
2016-May-18 20:33N 38°59' W 076°23'12 5.7
2016-May-18 18:30N 39°11' W 076°26'4 4.1
2016-May-18 17:33N 39°13' W 076°30'3 3.3
2016-May-18 16:33N 39°15' W 076°34'2 2.5
2016-May-18 15:33N 39°17' W 076°36'0 0.0
2016-May-18 14:33N 39°17' W 076°36'3 3.3
2016-May-18 13:33N 39°14' W 076°33'1 0.9
2016-May-18 12:33N 39°14' W 076°34'0 0.0
2016-May-18 11:33N 39°14' W 076°34'  

Dump ship's entire track history